createdAt,value
2018-05-10T00:00:22.840Z,17.80
2018-05-10T00:02:51.912Z,17.40
2018-05-10T00:05:20.259Z,17.40
2018-05-10T00:07:48.681Z,17.60
2018-05-10T00:10:16.911Z,17.90
2018-05-10T00:12:45.231Z,18.00
2018-05-10T00:15:14.303Z,18.30
2018-05-10T00:17:42.620Z,18.30
2018-05-10T00:20:10.931Z,18.40
2018-05-10T00:22:39.994Z,18.70
2018-05-10T00:25:08.303Z,18.60
2018-05-10T00:27:36.629Z,18.80
2018-05-10T00:30:05.775Z,18.90
2018-05-10T00:32:38.427Z,18.90
2018-05-10T00:35:07.536Z,18.50
2018-05-10T00:37:36.611Z,18.30
2018-05-10T00:40:04.926Z,18.30
2018-05-10T00:42:33.240Z,18.10
2018-05-10T00:45:01.583Z,17.80
2018-05-10T00:47:29.928Z,17.90
2018-05-10T00:49:59.018Z,18.20
2018-05-10T00:52:27.339Z,18.20
2018-05-10T00:54:58.215Z,18.10
2018-05-10T00:57:26.507Z,18.10
2018-05-10T00:59:54.851Z,18.10
2018-05-10T01:02:23.157Z,18.10
2018-05-10T01:04:51.607Z,18.20
2018-05-10T01:07:19.831Z,18.30
2018-05-10T01:09:48.155Z,18.40
2018-05-10T01:12:16.440Z,18.50
2018-05-10T01:14:45.513Z,18.70
2018-05-10T01:17:13.836Z,18.70
2018-05-10T01:19:42.164Z,18.80
2018-05-10T01:22:11.224Z,18.70
2018-05-10T01:24:39.512Z,18.70
2018-05-10T01:27:07.835Z,18.50
2018-05-10T01:29:36.125Z,18.60
2018-05-10T01:32:05.408Z,18.40
2018-05-10T01:34:33.707Z,18.60
2018-05-10T01:37:02.327Z,18.80
2018-05-10T01:39:30.615Z,18.90
2018-05-10T01:41:58.924Z,19.00
2018-05-10T01:44:27.372Z,18.90
2018-05-10T01:46:55.649Z,18.80
2018-05-10T01:49:24.011Z,18.50
2018-05-10T01:51:52.315Z,18.40
2018-05-10T01:54:21.396Z,18.40
2018-05-10T01:56:49.688Z,18.40
2018-05-10T01:59:18.007Z,18.50
2018-05-10T02:01:46.332Z,18.60
2018-05-10T02:04:15.390Z,18.40
2018-05-10T02:06:43.703Z,18.40
2018-05-10T02:09:12.030Z,18.30
2018-05-10T02:11:40.339Z,18.30
2018-05-10T02:14:08.643Z,18.20
2018-05-10T02:16:36.975Z,18.10
2018-05-10T02:19:05.304Z,18.00
2018-05-10T02:21:33.612Z,18.00
2018-05-10T02:24:01.970Z,17.80
2018-05-10T02:26:30.561Z,17.80
2018-05-10T02:28:58.864Z,17.90
2018-05-10T02:31:30.338Z,18.00
2018-05-10T02:33:59.425Z,18.20
2018-05-10T02:36:27.845Z,18.20
2018-05-10T02:38:56.874Z,18.50
2018-05-10T02:41:25.188Z,18.50
2018-05-10T02:43:53.511Z,18.70
2018-05-10T02:46:21.810Z,18.50
2018-05-10T02:48:50.132Z,18.30
2018-05-10T02:51:19.213Z,18.30
2018-05-10T02:53:47.937Z,18.30
2018-05-10T02:56:16.241Z,18.30
2018-05-10T02:58:45.305Z,18.30
2018-05-10T03:01:13.621Z,18.30
2018-05-10T03:03:41.916Z,18.30
2018-05-10T03:06:10.231Z,18.40
2018-05-10T03:08:39.315Z,18.50
2018-05-10T03:11:07.627Z,18.50
2018-05-10T03:13:35.939Z,18.30
2018-05-10T03:16:05.015Z,18.10
2018-05-10T03:18:33.306Z,18.10
2018-05-10T03:21:01.616Z,18.30
2018-05-10T03:23:29.927Z,18.20
2018-05-10T03:25:58.997Z,18.10
2018-05-10T03:28:27.302Z,18.10
2018-05-10T03:31:02.059Z,18.20
2018-05-10T03:33:30.927Z,18.10
2018-05-10T03:35:59.351Z,18.10
2018-05-10T03:38:27.652Z,18.10
2018-05-10T03:40:55.995Z,18.20
2018-05-10T03:43:24.291Z,18.40
2018-05-10T03:45:52.599Z,18.40
2018-05-10T03:48:20.927Z,18.40
2018-05-10T03:50:49.219Z,18.40
2018-05-10T03:53:17.527Z,18.40
2018-05-10T03:55:46.595Z,18.30
2018-05-10T03:58:14.928Z,18.30
2018-05-10T04:00:43.232Z,18.20
2018-05-10T04:06:33.199Z,18.20
2018-05-10T04:09:13.534Z,18.10
2018-05-10T04:11:41.845Z,18.30
2018-05-10T04:14:10.151Z,18.20
2018-05-10T04:16:38.495Z,18.10
2018-05-10T04:19:07.573Z,18.20
2018-05-10T04:21:35.876Z,18.20
2018-05-10T04:24:04.194Z,18.30
2018-05-10T04:26:33.583Z,18.30
2018-05-10T04:29:01.880Z,18.30
2018-05-10T04:31:30.184Z,18.30
2018-05-10T04:33:58.498Z,18.30
2018-05-10T04:36:26.832Z,18.40
2018-05-10T04:38:55.444Z,18.40
2018-05-10T04:41:23.754Z,18.30
2018-05-10T04:43:52.057Z,18.30
2018-05-10T04:46:20.399Z,18.30
2018-05-10T04:48:48.704Z,18.30
2018-05-10T04:51:17.003Z,18.30
2018-05-10T04:53:45.335Z,18.30
2018-05-10T04:56:13.650Z,18.30
2018-05-10T04:58:42.738Z,18.30
2018-05-10T05:01:11.767Z,18.30
2018-05-10T05:03:40.862Z,18.30
2018-05-10T05:06:09.413Z,18.20
2018-05-10T05:08:37.738Z,18.20
2018-05-10T05:11:06.785Z,18.20
2018-05-10T05:13:35.387Z,18.10
2018-05-10T05:16:04.460Z,18.10
2018-05-10T05:18:32.786Z,18.10
2018-05-10T05:21:01.123Z,18.20
2018-05-10T05:23:29.442Z,18.20
2018-05-10T05:25:57.775Z,18.20
2018-05-10T05:28:26.877Z,18.20
2018-05-10T05:31:06.476Z,18.10
2018-05-10T05:33:34.775Z,18.10
2018-05-10T05:36:03.100Z,18.10
2018-05-10T05:38:31.406Z,18.10
2018-05-10T05:40:59.734Z,18.10
2018-05-10T05:43:28.181Z,18.10
2018-05-10T05:45:56.418Z,18.10
2018-05-10T05:48:25.687Z,18.20
2018-05-10T05:50:54.295Z,18.20
2018-05-10T05:53:22.627Z,18.30
2018-05-10T05:55:51.706Z,18.30
2018-05-10T05:58:20.044Z,18.30
2018-05-10T06:00:48.396Z,18.30
2018-05-10T06:03:16.726Z,18.40
2018-05-10T06:05:45.027Z,18.60
2018-05-10T06:08:13.343Z,18.60
2018-05-10T06:10:41.669Z,18.70
2018-05-10T06:13:09.987Z,18.70
2018-05-10T06:15:39.107Z,18.60
2018-05-10T06:18:07.407Z,18.60
2018-05-10T06:20:35.727Z,18.70
2018-05-10T06:23:04.357Z,18.70
2018-05-10T06:25:32.661Z,18.60
2018-05-10T06:28:00.979Z,18.70
2018-05-10T06:30:30.099Z,18.90
2018-05-10T06:32:59.164Z,18.90
2018-05-10T06:35:27.479Z,18.80
2018-05-10T06:37:55.804Z,19.00
2018-05-10T06:40:24.180Z,19.00
2018-05-10T06:42:52.503Z,19.00
2018-05-10T06:45:22.946Z,19.00
2018-05-10T06:47:51.330Z,19.00
2018-05-10T06:50:19.628Z,19.00
2018-05-10T06:52:47.952Z,18.90
2018-05-10T06:55:16.267Z,19.00
2018-05-10T06:57:44.576Z,19.00
2018-05-10T07:00:13.155Z,19.10
2018-05-10T07:02:41.465Z,19.10
2018-05-10T07:05:09.783Z,18.90
